createdAt,value
2023-11-30T00:01:44.591Z,97962.56
2023-11-30T00:11:46.188Z,97952.31
2023-11-30T00:21:47.692Z,97954.16
2023-11-30T00:31:49.181Z,97947.16
2023-11-30T00:41:50.736Z,97934.88
2023-11-30T00:51:52.285Z,97908.19
2023-11-30T01:01:53.866Z,97920.06
2023-11-30T01:11:55.402Z,97921.94
2023-11-30T01:21:57.650Z,97927.47
2023-11-30T01:31:59.159Z,97909.78
2023-11-30T01:42:01.946Z,97904.06
2023-11-30T01:52:04.320Z,97882.09
2023-11-30T02:02:05.955Z,97888.25
2023-11-30T02:12:07.835Z,97874.28
2023-11-30T02:22:09.306Z,97861.78
2023-11-30T02:32:10.779Z,97845.56
2023-11-30T02:42:12.313Z,97857.06
2023-11-30T02:52:13.818Z,97860.53
2023-11-30T03:02:15.445Z,97856.44
2023-11-30T03:12:17.283Z,97825.44
2023-11-30T03:22:18.788Z,97843.09
2023-11-30T03:32:20.229Z,97827.72
2023-11-30T03:42:21.754Z,97821.53
2023-11-30T03:52:23.273Z,97828.53
2023-11-30T04:02:24.802Z,97831.00
2023-11-30T04:12:26.475Z,97839.41
2023-11-30T04:22:27.941Z,97839.59
2023-11-30T04:32:29.403Z,97822.38
2023-11-30T04:42:30.970Z,97813.34
2023-11-30T04:52:32.423Z,97796.72
2023-11-30T05:02:36.693Z,97802.69
2023-11-30T05:12:38.229Z,97800.53
2023-11-30T05:22:39.719Z,97810.75
2023-11-30T05:32:42.002Z,97809.59
2023-11-30T05:42:43.482Z,97786.25
2023-11-30T05:52:44.962Z,97786.31
2023-11-30T06:02:46.482Z,97777.34
2023-11-30T06:12:47.989Z,97774.00
2023-11-30T06:22:49.457Z,97786.31
2023-11-30T06:32:50.917Z,97799.50
2023-11-30T06:42:52.386Z,97787.22
2023-11-30T06:52:53.868Z,97784.00
2023-11-30T07:02:55.377Z,97779.94
2023-11-30T07:12:56.863Z,97782.06
2023-11-30T07:22:58.686Z,97771.19
2023-11-30T07:33:00.586Z,97755.44
2023-11-30T07:43:02.393Z,97755.84
2023-11-30T07:53:05.758Z,97776.25
2023-11-30T08:03:07.382Z,97775.47
2023-11-30T08:13:11.690Z,97761.72
2023-11-30T08:23:13.157Z,97769.94
2023-11-30T08:33:14.678Z,97781.88
2023-11-30T08:43:16.952Z,97774.88
2023-11-30T08:53:18.442Z,97773.06
2023-11-30T09:03:19.920Z,97760.88
2023-11-30T09:13:21.369Z,97758.84
2023-11-30T09:23:22.865Z,97750.66
2023-11-30T09:33:24.358Z,97750.66
2023-11-30T09:43:25.824Z,97757.19
2023-11-30T09:53:28.403Z,97753.63
2023-11-30T10:03:36.151Z,97749.94
2023-11-30T10:13:37.754Z,97740.28
2023-11-30T10:23:39.218Z,97745.59
2023-11-30T10:33:41.430Z,97741.34
2023-11-30T10:43:49.312Z,97743.78
2023-11-30T10:54:14.430Z,97743.94
2023-11-30T11:04:16.063Z,97729.50
2023-11-30T11:14:31.247Z,97738.13
2023-11-30T11:24:33.556Z,97742.72
2023-11-30T11:34:35.071Z,97737.38
2023-11-30T11:44:36.624Z,97742.66
2023-11-30T11:54:38.101Z,97731.31
2023-11-30T12:04:40.726Z,97716.91
2023-11-30T12:14:42.200Z,97710.56
2023-11-30T12:24:43.717Z,97703.63
2023-11-30T12:34:45.348Z,97703.63
2023-11-30T12:44:47.219Z,97703.19
2023-11-30T12:54:52.256Z,97708.16
2023-11-30T13:04:53.872Z,97693.78
2023-11-30T13:14:57.349Z,97694.44
2023-11-30T13:25:00.093Z,97687.06
2023-11-30T13:35:02.216Z,97691.78
2023-11-30T13:45:06.234Z,97701.91
2023-11-30T13:55:07.852Z,97697.63
2023-11-30T14:05:09.917Z,97705.25
2023-11-30T14:15:12.398Z,97703.06
2023-11-30T14:25:14.877Z,97703.09
2023-11-30T14:35:16.408Z,97718.09
2023-11-30T14:45:17.967Z,97714.03
2023-11-30T14:55:19.613Z,97722.50
2023-11-30T15:05:21.459Z,97731.53
2023-11-30T15:15:22.995Z,97741.81
2023-11-30T15:25:24.474Z,97739.41
2023-11-30T15:35:25.990Z,97733.66
2023-11-30T15:45:28.254Z,97740.66
2023-11-30T15:55:29.752Z,97730.41
2023-11-30T16:05:31.928Z,97743.34
2023-11-30T16:15:33.422Z,97741.53
2023-11-30T16:25:34.899Z,97752.00
2023-11-30T16:35:36.372Z,97764.31
2023-11-30T16:45:37.838Z,97763.69
2023-11-30T16:55:39.295Z,97772.16
2023-11-30T17:05:40.937Z,97754.91
2023-11-30T17:15:42.417Z,97770.69
2023-11-30T17:25:44.891Z,97778.50
2023-11-30T17:35:46.399Z,97772.09
2023-11-30T17:45:47.940Z,97773.16
2023-11-30T17:55:49.423Z,97773.97
2023-11-30T18:05:50.895Z,97777.25
2023-11-30T18:15:54.148Z,97781.97
2023-11-30T18:25:55.711Z,97792.00
2023-11-30T18:35:57.602Z,97788.72
2023-11-30T18:45:59.145Z,97789.16
2023-11-30T18:56:01.534Z,97789.56
2023-11-30T19:06:03.366Z,97797.97
2023-11-30T19:16:05.286Z,97803.13
2023-11-30T19:26:07.358Z,97821.59
2023-11-30T19:36:09.521Z,97831.84
2023-11-30T19:46:17.574Z,97839.66
2023-11-30T19:56:19.053Z,97844.16
2023-11-30T20:06:20.579Z,97849.94
2023-11-30T20:16:22.096Z,97843.13
2023-11-30T20:26:24.021Z,97836.16
2023-11-30T20:36:26.019Z,97854.81
2023-11-30T20:46:27.537Z,97845.78
2023-11-30T20:56:29.028Z,97836.19
2023-11-30T21:06:30.513Z,97836.78
2023-11-30T21:16:32.010Z,97861.19
2023-11-30T21:26:33.500Z,97857.69
2023-11-30T21:36:42.150Z,97858.31
2023-11-30T21:46:43.612Z,97850.31
2023-11-30T21:56:45.062Z,97857.91
2023-11-30T22:06:47.384Z,97867.13
2023-11-30T22:16:48.956Z,97874.91
2023-11-30T22:26:50.498Z,97887.44
2023-11-30T22:36:51.974Z,97901.16
2023-11-30T22:46:53.499Z,97873.25
2023-11-30T22:56:55.017Z,97880.84
2023-11-30T23:06:56.536Z,97892.50
2023-11-30T23:16:58.013Z,97882.75
2023-11-30T23:26:59.524Z,97897.31
2023-11-30T23:37:01.032Z,97897.91
2023-11-30T23:47:02.580Z,97907.16
2023-11-30T23:57:04.432Z,97922.97
